sensor_id;sensor_type;location;lat;lon;timestamp;pressure;altitude;pressure_sealevel;temperature;humidity
34658;BME280;20865;43.312;27.152;2022-09-21T00:01:26;100496.16;;;17.10;40.71
34658;BME280;20865;43.312;27.152;2022-09-21T00:04:01;100495.61;;;17.12;40.45
34658;BME280;20865;43.312;27.152;2022-09-21T00:06:31;100499.88;;;17.07;40.89
34658;BME280;20865;43.312;27.152;2022-09-21T00:09:00;100503.45;;;17.08;41.20
34658;BME280;20865;43.312;27.152;2022-09-21T00:11:31;100502.52;;;17.09;40.80
34658;BME280;20865;43.312;27.152;2022-09-21T00:14:06;100513.54;;;17.13;40.81
34658;BME280;20865;43.312;27.152;2022-09-21T00:16:33;100510.07;;;17.02;41.13
34658;BME280;20865;43.312;27.152;2022-09-21T00:19:01;100503.94;;;17.07;40.86
34658;BME280;20865;43.312;27.152;2022-09-21T00:21:29;100506.34;;;16.96;40.83
34658;BME280;20865;43.312;27.152;2022-09-21T00:23:58;100506.56;;;17.00;40.59
34658;BME280;20865;43.312;27.152;2022-09-21T00:26:27;100509.01;;;17.05;40.42
34658;BME280;20865;43.312;27.152;2022-09-21T00:28:57;100505.86;;;17.05;39.43
34658;BME280;20865;43.312;27.152;2022-09-21T00:31:26;100512.83;;;17.01;39.01
34658;BME280;20865;43.312;27.152;2022-09-21T00:33:54;100510.06;;;16.94;38.73
34658;BME280;20865;43.312;27.152;2022-09-21T00:36:23;100507.87;;;16.84;39.31
34658;BME280;20865;43.312;27.152;2022-09-21T00:38:56;100511.27;;;16.79;39.63
34658;BME280;20865;43.312;27.152;2022-09-21T00:41:26;100504.30;;;16.75;40.24
34658;BME280;20865;43.312;27.152;2022-09-21T00:46:45;100507.48;;;16.75;40.60
34658;BME280;20865;43.312;27.152;2022-09-21T00:49:14;100502.59;;;16.73;40.44
34658;BME280;20865;43.312;27.152;2022-09-21T00:51:43;100510.84;;;16.70;40.33
34658;BME280;20865;43.312;27.152;2022-09-21T00:54:13;100505.92;;;16.69;40.15
34658;BME280;20865;43.312;27.152;2022-09-21T00:56:42;100503.09;;;16.63;39.78
34658;BME280;20865;43.312;27.152;2022-09-21T00:59:11;100503.79;;;16.58;39.88
34658;BME280;20865;43.312;27.152;2022-09-21T01:01:40;100499.05;;;16.46;40.33
34658;BME280;20865;43.312;27.152;2022-09-21T01:04:09;100498.95;;;16.48;40.56
34658;BME280;20865;43.312;27.152;2022-09-21T01:06:38;100502.47;;;16.76;40.30
34658;BME280;20865;43.312;27.152;2022-09-21T01:09:07;100511.21;;;16.81;40.54
34658;BME280;20865;43.312;27.152;2022-09-21T01:11:52;100509.67;;;16.84;39.79
34658;BME280;20865;43.312;27.152;2022-09-21T01:17:14;100501.67;;;16.82;39.15
34658;BME280;20865;43.312;27.152;2022-09-21T01:30:50;100499.66;;;16.34;40.79
34658;BME280;20865;43.312;27.152;2022-09-21T01:33:30;100499.27;;;16.33;41.04
34658;BME280;20865;43.312;27.152;2022-09-21T01:35:58;100497.44;;;16.33;41.26
34658;BME280;20865;43.312;27.152;2022-09-21T01:38:41;100501.39;;;16.35;40.61
34658;BME280;20865;43.312;27.152;2022-09-21T01:41:07;100494.42;;;16.31;40.01
34658;BME280;20865;43.312;27.152;2022-09-21T01:43:46;100493.22;;;16.28;40.15
34658;BME280;20865;43.312;27.152;2022-09-21T01:46:12;100493.31;;;16.26;40.11
34658;BME280;20865;43.312;27.152;2022-09-21T01:48:43;100492.20;;;16.22;39.89
34658;BME280;20865;43.312;27.152;2022-09-21T01:51:13;100496.55;;;16.24;39.80
34658;BME280;20865;43.312;27.152;2022-09-21T01:53:50;100491.06;;;16.17;40.23
34658;BME280;20865;43.312;27.152;2022-09-21T01:56:23;100491.02;;;16.18;40.59
34658;BME280;20865;43.312;27.152;2022-09-21T01:58:58;100489.68;;;16.36;40.53
34658;BME280;20865;43.312;27.152;2022-09-21T02:01:22;100485.20;;;16.09;40.81
34658;BME280;20865;43.312;27.152;2022-09-21T02:03:56;100485.89;;;16.04;40.51
34658;BME280;20865;43.312;27.152;2022-09-21T02:06:25;100486.61;;;16.07;40.13
34658;BME280;20865;43.312;27.152;2022-09-21T02:08:54;100485.34;;;16.06;40.38
34658;BME280;20865;43.312;27.152;2022-09-21T02:11:22;100483.13;;;16.05;40.57
34658;BME280;20865;43.312;27.152;2022-09-21T02:13:52;100480.44;;;16.05;40.60
34658;BME280;20865;43.312;27.152;2022-09-21T02:19:13;100485.73;;;15.98;41.93
34658;BME280;20865;43.312;27.152;2022-09-21T02:21:57;100486.12;;;15.99;41.76
34658;BME280;20865;43.312;27.152;2022-09-21T02:32:38;100499.45;;;16.02;41.17
34658;BME280;20865;43.312;27.152;2022-09-21T02:43:30;100508.16;;;15.99;40.69
34658;BME280;20865;43.312;27.152;2022-09-21T02:45:58;100503.58;;;16.01;40.89
34658;BME280;20865;43.312;27.152;2022-09-21T02:48:40;100500.31;;;15.94;41.10
34658;BME280;20865;43.312;27.152;2022-09-21T02:51:09;100506.00;;;15.96;41.47
34658;BME280;20865;43.312;27.152;2022-09-21T02:53:39;100506.09;;;15.95;41.97
34658;BME280;20865;43.312;27.152;2022-09-21T02:56:08;100515.61;;;16.02;42.34
34658;BME280;20865;43.312;27.152;2022-09-21T02:58:45;100507.92;;;16.03;42.54
34658;BME280;20865;43.312;27.152;2022-09-21T03:01:10;100507.68;;;15.99;42.52
34658;BME280;20865;43.312;27.152;2022-09-21T03:03:39;100508.16;;;16.07;42.12
34658;BME280;20865;43.312;27.152;2022-09-21T03:06:07;100506.52;;;16.05;41.95
34658;BME280;20865;43.312;27.152;2022-09-21T03:08:34;100510.80;;;16.09;41.69
34658;BME280;20865;43.312;27.152;2022-09-21T03:11:02;100506.52;;;16.13;41.26
34658;BME280;20865;43.312;27.152;2022-09-21T03:13:30;100509.36;;;16.10;41.33
34658;BME280;20865;43.312;27.152;2022-09-21T03:16:06;100504.87;;;16.11;41.45
34658;BME280;20865;43.312;27.152;2022-09-21T03:18:31;100502.77;;;16.07;41.25
34658;BME280;20865;43.312;27.152;2022-09-21T03:20:59;100501.42;;;16.07;41.25
34658;BME280;20865;43.312;27.152;2022-09-21T03:23:28;100506.19;;;16.02;41.67
34658;BME280;20865;43.312;27.152;2022-09-21T03:25:56;100507.39;;;16.05;41.68
34658;BME280;20865;43.312;27.152;2022-09-21T03:28:23;100511.09;;;16.03;41.72
34658;BME280;20865;43.312;27.152;2022-09-21T03:30:51;100504.75;;;16.04;41.68
34658;BME280;20865;43.312;27.152;2022-09-21T03:33:19;100509.36;;;16.02;41.51
34658;BME280;20865;43.312;27.152;2022-09-21T03:35:50;100510.77;;;16.00;41.38
34658;BME280;20865;43.312;27.152;2022-09-21T03:38:19;100508.02;;;16.02;41.12
34658;BME280;20865;43.312;27.152;2022-09-21T03:40:48;100508.64;;;15.98;41.05
34658;BME280;20865;43.312;27.152;2022-09-21T03:43:16;100501.19;;;15.94;41.30
34658;BME280;20865;43.312;27.152;2022-09-21T03:45:44;100507.11;;;15.92;41.36
34658;BME280;20865;43.312;27.152;2022-09-21T03:48:13;100501.86;;;15.89;41.46
34658;BME280;20865;43.312;27.152;2022-09-21T03:50:41;100512.19;;;15.90;41.28
34658;BME280;20865;43.312;27.152;2022-09-21T03:53:09;100510.84;;;15.90;41.25
34658;BME280;20865;43.312;27.152;2022-09-21T03:55:37;100505.66;;;15.85;41.69
34658;BME280;20865;43.312;27.152;2022-09-21T03:58:05;100505.56;;;15.78;41.92
34658;BME280;20865;43.312;27.152;2022-09-21T04:00:33;100512.90;;;15.56;42.65
34658;BME280;20865;43.312;27.152;2022-09-21T04:03:01;100515.17;;;15.55;43.55
34658;BME280;20865;43.312;27.152;2022-09-21T04:05:29;100521.62;;;15.61;43.46
34658;BME280;20865;43.312;27.152;2022-09-21T04:07:56;100521.63;;;15.42;44.01
34658;BME280;20865;43.312;27.152;2022-09-21T04:10:25;100528.61;;;15.46;43.83
34658;BME280;20865;43.312;27.152;2022-09-21T04:13:00;100531.34;;;15.44;44.03
34658;BME280;20865;43.312;27.152;2022-09-21T04:15:29;100531.34;;;15.44;44.02
34658;BME280;20865;43.312;27.152;2022-09-21T04:17:56;100534.12;;;15.43;44.14
34658;BME280;20865;43.312;27.152;2022-09-21T04:20:25;100538.03;;;15.46;44.66
34658;BME280;20865;43.312;27.152;2022-09-21T04:22:52;100543.13;;;15.52;45.17
34658;BME280;20865;43.312;27.152;2022-09-21T04:25:20;100545.99;;;15.58;45.71
34658;BME280;20865;43.312;27.152;2022-09-21T04:27:47;100544.23;;;15.77;45.76
34658;BME280;20865;43.312;27.152;2022-09-21T04:30:16;100539.13;;;15.90;45.58
34658;BME280;20865;43.312;27.152;2022-09-21T04:32:44;100543.81;;;15.95;45.71
34658;BME280;20865;43.312;27.152;2022-09-21T04:35:12;100540.34;;;16.02;45.89
34658;BME280;20865;43.312;27.152;2022-09-21T04:37:40;100539.05;;;16.19;45.90
34658;BME280;20865;43.312;27.152;2022-09-21T04:40:08;100543.57;;;16.27;45.85
34658;BME280;20865;43.312;27.152;2022-09-21T04:42:36;100547.31;;;16.33;45.84
34658;BME280;20865;43.312;27.152;2022-09-21T04:45:04;100545.52;;;16.42;45.84
34658;BME280;20865;43.312;27.152;2022-09-21T04:47:33;100544.01;;;16.54;45.62
34658;BME280;20865;43.312;27.152;2022-09-21T04:50:00;100545.77;;;16.64;45.50
34658;BME280;20865;43.312;27.152;2022-09-21T04:52:28;100544.38;;;16.74;45.40
34658;BME280;20865;43.312;27.152;2022-09-21T04:54:55;100543.40;;;16.84;45.36
34658;BME280;20865;43.312;27.152;2022-09-21T04:57:23;100554.91;;;16.96;45.18
34658;BME280;20865;43.312;27.152;2022-09-21T04:59:51;100560.64;;;16.99;45.25
34658;BME280;20865;43.312;27.152;2022-09-21T05:02:18;100559.27;;;17.07;45.18
34658;BME280;20865;43.312;27.152;2022-09-21T05:04:46;100551.23;;;17.23;45.00
34658;BME280;20865;43.312;27.152;2022-09-21T05:07:13;100553.58;;;17.38;44.92
34658;BME280;20865;43.312;27.152;2022-09-21T05:09:41;100554.27;;;17.50;44.86
34658;BME280;20865;43.312;27.152;2022-09-21T05:12:27;100554.49;;;17.54;44.67
34658;BME280;20865;43.312;27.152;2022-09-21T05:14:55;100552.37;;;17.77;44.51
34658;BME280;20865;43.312;27.152;2022-09-21T05:17:22;100555.58;;;17.92;44.42
34658;BME280;20865;43.312;27.152;2022-09-21T05:19:51;100552.89;;;18.15;43.76
34658;BME280;20865;43.312;27.152;2022-09-21T05:22:19;100553.97;;;18.36;43.41
34658;BME280;20865;43.312;27.152;2022-09-21T05:24:47;100553.56;;;18.57;43.00
34658;BME280;20865;43.312;27.152;2022-09-21T05:27:14;100553.88;;;18.76;42.91
34658;BME280;20865;43.312;27.152;2022-09-21T05:29:43;100550.55;;;19.01;42.58
34658;BME280;20865;43.312;27.152;2022-09-21T05:32:53;100553.78;;;19.29;42.21
34658;BME280;20865;43.312;27.152;2022-09-21T05:37:45;100550.86;;;20.65;39.84
34658;BME280;20865;43.312;27.152;2022-09-21T05:40:13;100551.43;;;20.63;39.39
34658;BME280;20865;43.312;27.152;2022-09-21T05:42:41;100549.99;;;20.64;39.74
34658;BME280;20865;43.312;27.152;2022-09-21T05:45:14;100549.05;;;20.78;39.56
34658;BME280;20865;43.312;27.152;2022-09-21T05:47:49;100542.70;;;20.98;39.13
34658;BME280;20865;43.312;27.152;2022-09-21T05:53:23;100541.41;;;21.80;37.67
34658;BME280;20865;43.312;27.152;2022-09-21T05:56:03;100543.93;;;21.88;37.61
34658;BME280;20865;43.312;27.152;2022-09-21T06:03:55;100541.65;;;22.56;35.82
34658;BME280;20865;43.312;27.152;2022-09-21T06:06:23;100546.10;;;22.57;35.84
34658;BME280;20865;43.312;27.152;2022-09-21T06:08:50;100547.74;;;22.41;36.02
34658;BME280;20865;43.312;27.152;2022-09-21T06:11:18;100546.19;;;22.26;36.42
34658;BME280;20865;43.312;27.152;2022-09-21T06:13:46;100548.73;;;22.94;35.61
34658;BME280;20865;43.312;27.152;2022-09-21T06:16:13;100540.86;;;22.78;35.78
34658;BME280;20865;43.312;27.152;2022-09-21T06:18:41;100545.67;;;22.80;35.97
34658;BME280;20865;43.312;27.152;2022-09-21T06:21:08;100554.95;;;22.42;36.24
34658;BME280;20865;43.312;27.152;2022-09-21T06:23:36;100547.19;;;22.25;36.33
34658;BME280;20865;43.312;27.152;2022-09-21T06:26:04;100552.80;;;22.16;36.91
34658;BME280;20865;43.312;27.152;2022-09-21T06:28:32;100552.80;;;22.16;36.48
34658;BME280;20865;43.312;27.152;2022-09-21T06:30:59;100560.38;;;22.05;36.73
34658;BME280;20865;43.312;27.152;2022-09-21T06:33:27;100562.45;;;22.02;37.13
34658;BME280;20865;43.312;27.152;2022-09-21T06:35:56;100555.23;;;21.95;37.16
34658;BME280;20865;43.312;27.152;2022-09-21T06:38:26;100556.66;;;21.88;37.49
34658;BME280;20865;43.312;27.152;2022-09-21T06:40:59;100555.09;;;21.78;37.85
34658;BME280;20865;43.312;27.152;2022-09-21T06:43:24;100556.66;;;21.70;38.06
34658;BME280;20865;43.312;27.152;2022-09-21T06:45:56;100555.96;;;21.79;38.13
34658;BME280;20865;43.312;27.152;2022-09-21T06:48:24;100556.22;;;21.94;37.49
34658;BME280;20865;43.312;27.152;2022-09-21T06:51:02;100550.69;;;22.32;37.19
34658;BME280;20865;43.312;27.152;2022-09-21T06:53:27;100553.00;;;22.50;36.91
34658;BME280;20865;43.312;27.152;2022-09-21T06:56:06;100551.85;;;22.76;36.71
34658;BME280;20865;43.312;27.152;2022-09-21T06:58:35;100551.71;;;22.96;36.48
34658;BME280;20865;43.312;27.152;2022-09-21T07:01:06;100551.56;;;23.44;35.49
34658;BME280;20865;43.312;27.152;2022-09-21T07:03:34;100541.17;;;23.77;34.51
34658;BME280;20865;43.312;27.152;2022-09-21T07:06:02;100542.18;;;23.82;34.47
34658;BME280;20865;43.312;27.152;2022-09-21T07:08:30;100543.16;;;23.92;34.63
34658;BME280;20865;43.312;27.152;2022-09-21T07:10:59;100538.68;;;23.97;34.20
34658;BME280;20865;43.312;27.152;2022-09-21T07:13:28;100546.73;;;24.10;34.25
34658;BME280;20865;43.312;27.152;2022-09-21T07:15:56;100544.80;;;24.33;33.97
34658;BME280;20865;43.312;27.152;2022-09-21T07:18:23;100532.62;;;24.37;33.48
34658;BME280;20865;43.312;27.152;2022-09-21T07:20:51;100537.80;;;24.57;33.41
34658;BME280;20865;43.312;27.152;2022-09-21T07:23:19;100542.03;;;24.55;33.83
34658;BME280;20865;43.312;27.152;2022-09-21T07:25:48;100535.41;;;24.63;33.18
34658;BME280;20865;43.312;27.152;2022-09-21T07:28:18;100526.91;;;24.72;32.96
34658;BME280;20865;43.312;27.152;2022-09-21T07:30:45;100531.65;;;24.76;32.89
34658;BME280;20865;43.312;27.152;2022-09-21T07:33:13;100533.02;;;24.76;33.21
34658;BME280;20865;43.312;27.152;2022-09-21T07:35:49;100533.92;;;24.86;32.62
34658;BME280;20865;43.312;27.152;2022-09-21T07:38:11;100538.09;;;24.95;32.41
34658;BME280;20865;43.312;27.152;2022-09-21T07:40:39;100519.64;;;25.09;32.16
34658;BME280;20865;43.312;27.152;2022-09-21T07:43:06;100523.14;;;25.05;32.08
34658;BME280;20865;43.312;27.152;2022-09-21T07:45:34;100517.03;;;25.13;32.02
34658;BME280;20865;43.312;27.152;2022-09-21T07:48:05;100517.45;;;25.24;32.15
34658;BME280;20865;43.312;27.152;2022-09-21T07:50:34;100514.27;;;25.34;31.79
34658;BME280;20865;43.312;27.152;2022-09-21T07:53:02;100518.94;;;25.43;32.02
34658;BME280;20865;43.312;27.152;2022-09-21T07:55:30;100521.92;;;25.55;31.21
34658;BME280;20865;43.312;27.152;2022-09-21T07:57:58;100513.60;;;25.57;30.74
34658;BME280;20865;43.312;27.152;2022-09-21T08:00:43;100512.31;;;25.92;30.92
34658;BME280;20865;43.312;27.152;2022-09-21T08:03:11;100514.47;;;25.88;30.70
34658;BME280;20865;43.312;27.152;2022-09-21T08:05:39;100521.19;;;25.99;31.00
34658;BME280;20865;43.312;27.152;2022-09-21T08:08:07;100514.19;;;25.91;30.53
34658;BME280;20865;43.312;27.152;2022-09-21T08:10:35;100506.77;;;25.97;31.12
34658;BME280;20865;43.312;27.152;2022-09-21T08:13:04;100500.98;;;26.25;30.20
34658;BME280;20865;43.312;27.152;2022-09-21T08:15:32;100500.08;;;26.40;29.97
34658;BME280;20865;43.312;27.152;2022-09-21T08:17:59;100511.43;;;26.51;30.09
34658;BME280;20865;43.312;27.152;2022-09-21T08:20:27;100499.81;;;26.63;29.92
34658;BME280;20865;43.312;27.152;2022-09-21T08:22:55;100501.02;;;26.74;30.18
34658;BME280;20865;43.312;27.152;2022-09-21T08:25:23;100497.55;;;26.91;28.98
34658;BME280;20865;43.312;27.152;2022-09-21T08:27:50;100497.55;;;26.91;28.98
34658;BME280;20865;43.312;27.152;2022-09-21T08:30:18;100499.91;;;27.10;29.06
34658;BME280;20865;43.312;27.152;2022-09-21T08:32:46;100488.43;;;27.10;28.50
34658;BME280;20865;43.312;27.152;2022-09-21T08:35:13;100494.13;;;27.13;28.55
34658;BME280;20865;43.312;27.152;2022-09-21T08:37:41;100486.89;;;27.31;28.15
34658;BME280;20865;43.312;27.152;2022-09-21T08:40:09;100486.89;;;27.31;28.15
34658;BME280;20865;43.312;27.152;2022-09-21T08:42:44;100484.87;;;27.61;28.17
34658;BME280;20865;43.312;27.152;2022-09-21T08:45:17;100477.19;;;27.50;28.26
34658;BME280;20865;43.312;27.152;2022-09-21T08:47:56;100486.64;;;27.38;28.96
34658;BME280;20865;43.312;27.152;2022-09-21T08:50:34;100477.55;;;27.38;28.10
34658;BME280;20865;43.312;27.152;2022-09-21T08:53:21;100479.52;;;27.31;27.60
34658;BME280;20865;43.312;27.152;2022-09-21T08:55:48;100482.09;;;27.33;27.88
34658;BME280;20865;43.312;27.152;2022-09-21T08:58:23;100474.02;;;27.55;27.56
34658;BME280;20865;43.312;27.152;2022-09-21T09:03:52;100475.01;;;27.54;27.30
34658;BME280;20865;43.312;27.152;2022-09-21T09:06:27;100465.97;;;27.58;27.84
34658;BME280;20865;43.312;27.152;2022-09-21T09:09:01;100465.41;;;27.68;27.93
34658;BME280;20865;43.312;27.152;2022-09-21T09:19:50;100455.97;;;27.52;26.42
34658;BME280;20865;43.312;27.152;2022-09-21T09:22:21;100450.02;;;27.57;26.28
34658;BME280;20865;43.312;27.152;2022-09-21T09:24:50;100451.00;;;27.52;26.81
34658;BME280;20865;43.312;27.152;2022-09-21T09:27:27;100443.07;;;27.49;27.16
34658;BME280;20865;43.312;27.152;2022-09-21T09:29:58;100451.68;;;27.40;27.37
34658;BME280;20865;43.312;27.152;2022-09-21T09:32:26;100448.60;;;27.53;27.57
34658;BME280;20865;43.312;27.152;2022-09-21T09:34:55;100436.04;;;27.37;27.24
34658;BME280;20865;43.312;27.152;2022-09-21T09:37:25;100440.31;;;27.35;27.34
34658;BME280;20865;43.312;27.152;2022-09-21T09:39:56;100446.15;;;27.36;27.24
34658;BME280;20865;43.312;27.152;2022-09-21T09:42:36;100442.84;;;27.33;26.88
34658;BME280;20865;43.312;27.152;2022-09-21T09:45:11;100439.42;;;27.44;26.44
34658;BME280;20865;43.312;27.152;2022-09-21T09:50:42;100434.67;;;27.64;26.58
34658;BME280;20865;43.312;27.152;2022-09-21T09:53:12;100422.84;;;27.64;26.82
34658;BME280;20865;43.312;27.152;2022-09-21T09:55:47;100428.50;;;27.48;26.90
34658;BME280;20865;43.312;27.152;2022-09-21T09:58:17;100426.35;;;27.42;27.17
34658;BME280;20865;43.312;27.152;2022-09-21T10:00:47;100428.28;;;27.46;26.50
34658;BME280;20865;43.312;27.152;2022-09-21T10:03:17;100423.01;;;27.62;26.52
34658;BME280;20865;43.312;27.152;2022-09-21T10:05:45;100423.01;;;27.62;26.52
34658;BME280;20865;43.312;27.152;2022-09-21T10:11:10;100412.84;;;27.72;26.70
34658;BME280;20865;43.312;27.152;2022-09-21T10:13:40;100412.78;;;27.82;26.40
34658;BME280;20865;43.312;27.152;2022-09-21T10:16:12;100412.78;;;27.82;25.87
34658;BME280;20865;43.312;27.152;2022-09-21T10:18:57;100403.86;;;27.80;26.25
34658;BME280;20865;43.312;27.152;2022-09-21T10:21:39;100408.47;;;27.66;26.45
34658;BME280;20865;43.312;27.152;2022-09-21T10:24:19;100410.11;;;27.45;25.36
34658;BME280;20865;43.312;27.152;2022-09-21T10:26:48;100410.11;;;27.45;25.36
34658;BME280;20865;43.312;27.152;2022-09-21T10:34:32;100404.01;;;27.23;26.50
34658;BME280;20865;43.312;27.152;2022-09-21T10:37:22;100400.89;;;27.22;26.19
34658;BME280;20865;43.312;27.152;2022-09-21T10:39:32;100410.09;;;27.17;26.42
34658;BME280;20865;43.312;27.152;2022-09-21T10:42:02;100404.18;;;27.12;25.98
34658;BME280;20865;43.312;27.152;2022-09-21T10:44:40;100410.44;;;27.08;26.40
34658;BME280;20865;43.312;27.152;2022-09-21T10:47:24;100403.53;;;27.04;25.82
34658;BME280;20865;43.312;27.152;2022-09-21T10:49:56;100395.77;;;27.00;26.41
34658;BME280;20865;43.312;27.152;2022-09-21T10:52:33;100395.80;;;26.90;26.07
34658;BME280;20865;43.312;27.152;2022-09-21T10:55:01;100388.32;;;26.82;26.20
34658;BME280;20865;43.312;27.152;2022-09-21T10:57:29;100400.70;;;26.87;26.71
34658;BME280;20865;43.312;27.152;2022-09-21T11:00:45;100385.31;;;26.76;26.82
34658;BME280;20865;43.312;27.152;2022-09-21T11:02:34;100385.31;;;26.76;26.82
34658;BME280;20865;43.312;27.152;2022-09-21T11:05:15;100391.92;;;26.83;27.18
34658;BME280;20865;43.312;27.152;2022-09-21T11:07:50;100395.73;;;26.86;26.75
34658;BME280;20865;43.312;27.152;2022-09-21T11:10:52;100393.86;;;26.87;27.50
34658;BME280;20865;43.312;27.152;2022-09-21T11:13:27;100393.86;;;26.87;27.50
34658;BME280;20865;43.312;27.152;2022-09-21T11:18:45;100391.58;;;26.82;26.87
34658;BME280;20865;43.312;27.152;2022-09-21T11:21:35;100391.06;;;26.82;26.98
34658;BME280;20865;43.312;27.152;2022-09-21T11:27:01;100392.66;;;26.85;27.36
34658;BME280;20865;43.312;27.152;2022-09-21T11:29:36;100390.48;;;26.89;27.02
34658;BME280;20865;43.312;27.152;2022-09-21T11:32:24;100397.05;;;26.82;26.92
34658;BME280;20865;43.312;27.152;2022-09-21T11:35:08;100397.05;;;26.82;26.92
34658;BME280;20865;43.312;27.152;2022-09-21T11:43:19;100389.55;;;26.02;28.31
34658;BME280;20865;43.312;27.152;2022-09-21T11:46:11;100395.08;;;25.97;28.63
34658;BME280;20865;43.312;27.152;2022-09-21T12:02:53;100396.23;;;25.59;28.57
34658;BME280;20865;43.312;27.152;2022-09-21T12:05:40;100383.16;;;25.48;28.06
34658;BME280;20865;43.312;27.152;2022-09-21T12:11:09;100383.47;;;25.29;27.93
34658;BME280;20865;43.312;27.152;2022-09-21T12:13:44;100385.08;;;25.32;29.11
34658;BME280;20865;43.312;27.152;2022-09-21T12:16:19;100400.97;;;25.17;29.85
34658;BME280;20865;43.312;27.152;2022-09-21T12:18:59;100409.59;;;25.07;30.64
34658;BME280;20865;43.312;27.152;2022-09-21T12:21:41;100405.55;;;25.01;30.31
34658;BME280;20865;43.312;27.152;2022-09-21T12:24:28;100403.17;;;25.02;30.40
34658;BME280;20865;43.312;27.152;2022-09-21T12:26:57;100411.02;;;25.01;30.62
34658;BME280;20865;43.312;27.152;2022-09-21T12:29:44;100411.23;;;24.88;30.37
34658;BME280;20865;43.312;27.152;2022-09-21T12:35:05;100421.03;;;24.91;31.55
34658;BME280;20865;43.312;27.152;2022-09-21T12:37:43;100419.81;;;25.05;30.50
34658;BME280;20865;43.312;27.152;2022-09-21T12:40:23;100431.80;;;24.92;29.98
34658;BME280;20865;43.312;27.152;2022-09-21T12:43:07;100431.24;;;25.04;30.41
34658;BME280;20865;43.312;27.152;2022-09-21T12:45:39;100440.89;;;25.08;31.42
34658;BME280;20865;43.312;27.152;2022-09-21T12:48:30;100438.16;;;25.08;31.97
34658;BME280;20865;43.312;27.152;2022-09-21T12:51:18;100439.14;;;25.13;32.66
34658;BME280;20865;43.312;27.152;2022-09-21T12:53:49;100431.95;;;25.12;32.54
34658;BME280;20865;43.312;27.152;2022-09-21T12:56:42;100422.77;;;25.07;32.21
34658;BME280;20865;43.312;27.152;2022-09-21T13:05:13;100385.39;;;24.71;33.15
34658;BME280;20865;43.312;27.152;2022-09-21T13:10:40;100397.66;;;24.62;33.12
34658;BME280;20865;43.312;27.152;2022-09-21T13:13:28;100398.34;;;24.69;33.55
34658;BME280;20865;43.312;27.152;2022-09-21T13:15:47;100398.12;;;24.61;32.87
34658;BME280;20865;43.312;27.152;2022-09-21T13:20:55;100406.63;;;24.53;32.25
34658;BME280;20865;43.312;27.152;2022-09-21T13:23:30;100406.97;;;24.59;32.32
34658;BME280;20865;43.312;27.152;2022-09-21T13:26:02;100407.30;;;24.45;32.13
34658;BME280;20865;43.312;27.152;2022-09-21T13:31:30;100411.34;;;24.51;32.38
34658;BME280;20865;43.312;27.152;2022-09-21T13:34:21;100413.73;;;24.44;32.26
34658;BME280;20865;43.312;27.152;2022-09-21T13:47:44;100440.28;;;24.68;31.51
34658;BME280;20865;43.312;27.152;2022-09-21T13:50:30;100446.20;;;24.58;31.65
34658;BME280;20865;43.312;27.152;2022-09-21T13:53:01;100447.59;;;24.53;31.88
34658;BME280;20865;43.312;27.152;2022-09-21T13:55:34;100460.89;;;24.46;32.06
34658;BME280;20865;43.312;27.152;2022-09-21T13:58:30;100463.16;;;24.30;32.43
34658;BME280;20865;43.312;27.152;2022-09-21T14:00:59;100472.80;;;24.07;32.91
34658;BME280;20865;43.312;27.152;2022-09-21T14:06:12;100465.55;;;23.85;33.09
34658;BME280;20865;43.312;27.152;2022-09-21T14:08:58;100454.03;;;23.82;33.47
34658;BME280;20865;43.312;27.152;2022-09-21T14:11:34;100456.66;;;23.72;33.75
34658;BME280;20865;43.312;27.152;2022-09-21T14:24:40;100445.59;;;23.62;32.53
34658;BME280;20865;43.312;27.152;2022-09-21T14:27:40;100436.20;;;23.61;32.40
34658;BME280;20865;43.312;27.152;2022-09-21T14:35:25;100443.98;;;23.71;31.32
34658;BME280;20865;43.312;27.152;2022-09-21T14:38:01;100445.24;;;23.72;31.00
34658;BME280;20865;43.312;27.152;2022-09-21T14:40:31;100451.16;;;23.77;31.23
34658;BME280;20865;43.312;27.152;2022-09-21T14:43:01;100452.17;;;23.76;31.01
34658;BME280;20865;43.312;27.152;2022-09-21T14:51:29;100450.55;;;23.85;30.66
34658;BME280;20865;43.312;27.152;2022-09-21T14:56:55;100474.20;;;23.90;31.25
34658;BME280;20865;43.312;27.152;2022-09-21T15:02:19;100480.56;;;23.80;32.09
34658;BME280;20865;43.312;27.152;2022-09-21T15:07:36;100487.26;;;23.70;33.97
34658;BME280;20865;43.312;27.152;2022-09-21T15:18:44;100485.27;;;23.61;36.15
34658;BME280;20865;43.312;27.152;2022-09-21T15:21:24;100479.20;;;23.57;35.55
34658;BME280;20865;43.312;27.152;2022-09-21T15:23:54;100481.67;;;23.54;34.82
34658;BME280;20865;43.312;27.152;2022-09-21T15:26:26;100477.22;;;23.53;34.79
34658;BME280;20865;43.312;27.152;2022-09-21T15:29:00;100473.24;;;23.52;35.35
34658;BME280;20865;43.312;27.152;2022-09-21T15:31:34;100468.80;;;23.40;35.01
34658;BME280;20865;43.312;27.152;2022-09-21T15:34:04;100468.30;;;23.40;34.88
34658;BME280;20865;43.312;27.152;2022-09-21T15:36:36;100465.94;;;23.41;35.04
34658;BME280;20865;43.312;27.152;2022-09-21T15:39:03;100466.30;;;23.42;34.91
34658;BME280;20865;43.312;27.152;2022-09-21T15:41:37;100464.08;;;23.42;33.99
34658;BME280;20865;43.312;27.152;2022-09-21T15:44:17;100462.21;;;23.42;33.42
34658;BME280;20865;43.312;27.152;2022-09-21T15:46:35;100458.87;;;23.39;32.71
34658;BME280;20865;43.312;27.152;2022-09-21T15:49:03;100461.11;;;23.34;33.04
34658;BME280;20865;43.312;27.152;2022-09-21T15:51:33;100448.22;;;23.24;32.67